createdAt,value
2019-02-06T00:00:45.497Z,99.90
2019-02-06T00:03:19.665Z,99.90
2019-02-06T00:05:49.050Z,99.90
2019-02-06T00:08:18.435Z,99.90
2019-02-06T00:10:47.663Z,99.90
2019-02-06T00:13:17.038Z,99.90
2019-02-06T00:15:46.395Z,99.90
2019-02-06T00:18:15.719Z,99.90
2019-02-06T00:20:45.101Z,99.90
2019-02-06T00:23:14.432Z,99.90
2019-02-06T00:25:43.774Z,99.90
2019-02-06T00:28:13.124Z,99.90
2019-02-06T00:30:42.837Z,99.90
2019-02-06T00:33:12.091Z,99.90
2019-02-06T00:35:41.408Z,99.90
2019-02-06T00:38:10.646Z,99.90
2019-02-06T00:40:39.882Z,99.90
2019-02-06T00:43:09.217Z,99.90
2019-02-06T00:45:38.552Z,99.90
2019-02-06T00:48:07.808Z,99.90
2019-02-06T00:50:37.088Z,99.90
2019-02-06T00:53:06.345Z,99.90
2019-02-06T00:55:35.592Z,99.90
2019-02-06T00:58:05.072Z,99.90
2019-02-06T01:00:34.408Z,99.90
2019-02-06T01:03:04.260Z,99.90
2019-02-06T01:05:38.311Z,99.90
2019-02-06T01:08:04.834Z,99.90
2019-02-06T01:10:34.239Z,99.90
2019-02-06T01:13:03.797Z,99.90
2019-02-06T01:15:33.117Z,99.90
2019-02-06T01:18:02.433Z,99.90
2019-02-06T01:20:31.788Z,99.90
2019-02-06T01:23:01.028Z,99.90
2019-02-06T01:25:30.479Z,99.90
2019-02-06T01:27:59.848Z,99.90
2019-02-06T01:30:31.660Z,99.90
2019-02-06T01:33:01.287Z,99.90
2019-02-06T01:35:30.575Z,99.90
2019-02-06T01:37:59.901Z,99.90
2019-02-06T01:40:29.215Z,99.90
2019-02-06T01:42:58.483Z,99.90
2019-02-06T01:45:27.713Z,99.90
2019-02-06T01:47:58.428Z,99.90
2019-02-06T01:50:27.786Z,99.90
2019-02-06T01:52:57.113Z,99.90
2019-02-06T01:55:26.353Z,99.90
2019-02-06T01:57:57.177Z,99.90
2019-02-06T02:00:26.498Z,99.90
2019-02-06T02:02:56.334Z,99.90
2019-02-06T02:05:25.690Z,99.90
2019-02-06T02:07:55.003Z,99.90
2019-02-06T02:10:24.654Z,99.90
2019-02-06T02:12:53.999Z,99.90
2019-02-06T02:15:23.521Z,99.90
2019-02-06T02:17:53.130Z,99.90
2019-02-06T02:20:23.138Z,99.90
2019-02-06T02:22:52.467Z,99.90
2019-02-06T02:25:22.399Z,99.90
2019-02-06T02:27:51.754Z,99.90
2019-02-06T02:30:28.269Z,99.90
2019-02-06T02:32:57.810Z,99.90
2019-02-06T02:35:27.120Z,99.90
2019-02-06T02:37:56.363Z,99.90
2019-02-06T02:40:25.645Z,99.90
2019-02-06T02:42:54.901Z,99.90
2019-02-06T02:45:24.228Z,99.90
2019-02-06T02:47:53.485Z,99.90
2019-02-06T02:50:22.817Z,99.90
2019-02-06T02:52:52.143Z,99.90
2019-02-06T02:55:21.425Z,99.90
2019-02-06T02:57:50.667Z,99.90
2019-02-06T03:00:22.110Z,99.90
2019-02-06T03:02:57.174Z,99.90
2019-02-06T03:05:29.729Z,99.90
2019-02-06T03:07:58.971Z,99.90
2019-02-06T03:10:28.335Z,99.90
2019-02-06T03:12:57.654Z,99.90
2019-02-06T03:15:29.170Z,99.90
2019-02-06T03:17:58.781Z,99.90
2019-02-06T03:20:28.105Z,99.90
2019-02-06T03:22:57.455Z,99.90
2019-02-06T03:25:27.082Z,99.90
2019-02-06T03:27:56.401Z,99.90
2019-02-06T03:30:25.881Z,99.90
2019-02-06T03:32:55.557Z,99.90
2019-02-06T03:35:24.875Z,99.90
2019-02-06T03:37:54.115Z,99.90
2019-02-06T03:40:23.473Z,99.90
2019-02-06T03:42:52.709Z,99.90
2019-02-06T03:45:21.964Z,99.90
2019-02-06T03:47:51.284Z,99.90
2019-02-06T03:50:20.715Z,99.90
2019-02-06T03:52:49.997Z,99.20
2019-02-06T03:55:19.353Z,98.60
2019-02-06T03:57:48.617Z,98.50
2019-02-06T04:00:18.468Z,98.20
2019-02-06T04:02:47.749Z,96.10
2019-02-06T04:05:17.396Z,95.90
2019-02-06T04:07:46.650Z,95.70
2019-02-06T04:10:16.027Z,93.90
2019-02-06T04:12:45.657Z,93.90
2019-02-06T04:15:17.075Z,91.60
2019-02-06T04:17:46.813Z,90.20
2019-02-06T04:20:16.257Z,89.70
2019-02-06T04:22:45.581Z,88.80
2019-02-06T04:25:15.167Z,88.80
2019-02-06T04:27:44.601Z,88.70
2019-02-06T04:30:14.496Z,88.40
2019-02-06T04:32:43.766Z,88.80
2019-02-06T04:35:13.605Z,88.20
2019-02-06T04:37:42.955Z,87.90
2019-02-06T04:40:15.320Z,87.50
2019-02-06T04:42:44.624Z,88.30
2019-02-06T04:45:15.244Z,89.50
2019-02-06T04:47:44.538Z,88.20
2019-02-06T04:50:14.334Z,86.60
2019-02-06T04:52:43.666Z,85.70
2019-02-06T04:55:14.334Z,85.40
2019-02-06T04:57:43.704Z,85.60
2019-02-06T05:00:16.746Z,85.30
2019-02-06T05:02:48.064Z,84.10
2019-02-06T05:05:17.880Z,82.90
2019-02-06T05:07:47.551Z,83.20
2019-02-06T05:10:16.939Z,84.10
2019-02-06T05:12:46.474Z,81.80
2019-02-06T05:15:16.327Z,82.30
2019-02-06T05:17:45.699Z,81.90
2019-02-06T05:20:27.573Z,82.20
2019-02-06T05:22:56.853Z,82.30
2019-02-06T05:25:26.494Z,82.80
2019-02-06T05:27:55.813Z,83.30
2019-02-06T05:30:25.173Z,83.30
2019-02-06T05:32:54.494Z,83.40
2019-02-06T05:35:23.842Z,83.30
2019-02-06T05:37:53.296Z,85.10
2019-02-06T05:40:22.967Z,84.60
2019-02-06T05:42:52.922Z,85.40
2019-02-06T05:45:22.543Z,84.40
2019-02-06T05:47:51.795Z,86.00
2019-02-06T05:50:21.011Z,87.40
2019-02-06T05:52:50.289Z,88.10
2019-02-06T05:55:19.838Z,89.40
2019-02-06T05:57:49.481Z,90.30
2019-02-06T06:00:23.494Z,89.80
2019-02-06T06:02:53.382Z,88.20
2019-02-06T06:05:22.730Z,88.10
2019-02-06T06:07:52.141Z,88.00
2019-02-06T06:10:21.466Z,87.40
2019-02-06T06:12:50.719Z,87.10
2019-02-06T06:15:20.986Z,87.70
2019-02-06T06:17:50.589Z,87.70
2019-02-06T06:20:20.251Z,88.80
2019-02-06T06:22:49.829Z,88.90
2019-02-06T06:25:19.764Z,88.00
2019-02-06T06:27:49.532Z,87.30
2019-02-06T06:30:19.325Z,87.30
2019-02-06T06:32:49.167Z,87.40
2019-02-06T06:35:18.605Z,87.10
2019-02-06T06:37:57.562Z,87.60
2019-02-06T06:40:20.886Z,88.30
2019-02-06T06:42:50.394Z,89.10
2019-02-06T06:45:22.133Z,89.20
2019-02-06T06:47:51.877Z,89.20
2019-02-06T06:50:23.267Z,89.10
2019-02-06T06:52:52.950Z,89.20
2019-02-06T06:55:22.716Z,89.40
2019-02-06T06:57:52.022Z,88.50
2019-02-06T07:00:23.689Z,89.10
2019-02-06T07:02:52.981Z,90.20
2019-02-06T07:05:22.366Z,90.30
2019-02-06T07:07:52.761Z,90.90
2019-02-06T07:10:22.296Z,91.30
2019-02-06T07:12:51.651Z,91.40
2019-02-06T07:15:28.211Z,91.80
2019-02-06T07:17:57.766Z,90.80
2019-02-06T07:20:27.093Z,91.10
2019-02-06T07:22:56.465Z,91.30
2019-02-06T07:25:25.702Z,91.70
2019-02-06T07:27:54.960Z,92.10
2019-02-06T07:30:26.692Z,92.30
2019-02-06T07:32:55.996Z,92.30
2019-02-06T07:35:25.247Z,91.30
2019-02-06T07:37:54.612Z,90.90
2019-02-06T07:40:23.952Z,90.60
2019-02-06T07:42:53.279Z,90.10
2019-02-06T07:45:22.929Z,89.40
2019-02-06T07:47:52.269Z,89.20
2019-02-06T07:50:24.668Z,89.90
2019-02-06T07:52:54.005Z,88.70
2019-02-06T07:55:23.255Z,88.90
2019-02-06T07:57:52.592Z,88.80
2019-02-06T08:00:21.872Z,88.50
2019-02-06T08:02:51.466Z,88.40
2019-02-06T08:05:20.831Z,89.30
2019-02-06T08:07:50.224Z,87.40
2019-02-06T08:10:22.195Z,87.10
2019-02-06T08:12:51.530Z,88.10
2019-02-06T08:15:21.600Z,88.20
2019-02-06T08:17:50.841Z,86.90
2019-02-06T08:20:20.723Z,87.20
2019-02-06T08:22:50.048Z,87.00
2019-02-06T08:25:20.045Z,85.80
2019-02-06T08:27:49.617Z,85.80
2019-02-06T08:30:24.081Z,85.90
2019-02-06T08:32:53.551Z,86.20
2019-02-06T08:35:22.881Z,85.50
2019-02-06T08:37:53.036Z,85.70
2019-02-06T08:40:23.616Z,85.40
2019-02-06T08:42:52.938Z,85.60
2019-02-06T08:45:25.941Z,85.10
2019-02-06T08:47:55.699Z,85.60
2019-02-06T08:50:25.480Z,84.60
2019-02-06T08:52:54.910Z,83.90
2019-02-06T08:55:26.609Z,84.70
2019-02-06T08:57:55.987Z,83.50
2019-02-06T09:00:28.127Z,83.10
2019-02-06T09:02:57.380Z,83.60
2019-02-06T09:05:27.262Z,81.80
2019-02-06T09:07:56.849Z,82.20
2019-02-06T09:10:26.605Z,82.10
2019-02-06T09:12:56.427Z,82.60
2019-02-06T09:15:27.425Z,82.40
2019-02-06T09:17:57.139Z,81.50
2019-02-06T09:20:28.525Z,83.00
2019-02-06T09:22:58.280Z,81.60
2019-02-06T09:25:28.182Z,82.50
2019-02-06T09:27:57.872Z,82.80
2019-02-06T09:30:28.954Z,82.80
2019-02-06T09:32:58.916Z,82.90
2019-02-06T09:35:28.253Z,83.10
2019-02-06T09:37:57.510Z,84.10
2019-02-06T09:40:28.578Z,84.20
2019-02-06T09:42:58.219Z,83.70
2019-02-06T09:45:27.985Z,84.40
2019-02-06T09:47:57.333Z,83.80
2019-02-06T09:50:35.646Z,83.80
2019-02-06T09:53:05.557Z,84.60
2019-02-06T09:55:35.102Z,82.80
2019-02-06T09:58:05.239Z,83.30
2019-02-06T10:00:36.243Z,83.80
2019-02-06T10:03:06.670Z,84.20
2019-02-06T10:05:36.017Z,84.30
2019-02-06T10:08:05.801Z,83.70
2019-02-06T10:10:35.053Z,83.40
2019-02-06T10:13:04.367Z,82.90
2019-02-06T10:15:35.655Z,83.70
2019-02-06T10:18:05.886Z,82.80
2019-02-06T10:20:37.823Z,83.40
2019-02-06T10:23:07.963Z,83.70
2019-02-06T10:25:38.032Z,83.40
2019-02-06T10:28:07.797Z,84.10
2019-02-06T10:30:42.858Z,83.50
2019-02-06T10:33:12.121Z,84.80
2019-02-06T10:35:41.444Z,84.70
2019-02-06T10:38:11.448Z,84.80
2019-02-06T10:40:40.749Z,84.50
2019-02-06T10:43:10.277Z,84.60
2019-02-06T10:45:40.087Z,84.40
2019-02-06T10:48:10.966Z,83.90
2019-02-06T10:50:46.055Z,84.70
2019-02-06T10:53:15.389Z,84.60
2019-02-06T10:55:44.707Z,84.30
2019-02-06T10:58:14.066Z,84.90
2019-02-06T11:00:46.621Z,84.50
2019-02-06T11:03:15.945Z,84.70
2019-02-06T11:05:45.385Z,84.30
2019-02-06T11:08:15.082Z,84.40
2019-02-06T11:10:44.880Z,85.00
2019-02-06T11:13:17.894Z,85.30
2019-02-06T11:15:47.394Z,85.50
2019-02-06T11:18:16.651Z,85.40
2019-02-06T11:20:48.513Z,86.50
2019-02-06T11:23:17.842Z,86.20
2019-02-06T11:25:47.105Z,86.70
2019-02-06T11:28:16.715Z,87.50
2019-02-06T11:30:46.124Z,87.50
2019-02-06T11:33:15.485Z,87.60
2019-02-06T11:35:47.949Z,87.60
2019-02-06T11:38:17.441Z,88.50
2019-02-06T11:40:46.684Z,88.40
2019-02-06T11:43:15.967Z,89.20
2019-02-06T11:45:45.228Z,89.00
2019-02-06T11:48:14.482Z,88.70
2019-02-06T11:50:49.480Z,87.40
2019-02-06T11:53:26.662Z,88.10
2019-02-06T11:55:57.088Z,88.30
2019-02-06T11:58:26.906Z,88.50
2019-02-06T12:01:19.314Z,89.70
2019-02-06T12:03:48.571Z,89.50
2019-02-06T12:06:18.024Z,90.60
2019-02-06T12:08:47.349Z,89.40
2019-02-06T12:11:16.648Z,90.60
2019-02-06T12:13:45.940Z,89.70
2019-02-06T12:16:15.272Z,90.00
2019-02-06T12:18:44.517Z,90.60
2019-02-06T12:21:14.208Z,91.00
2019-02-06T12:23:44.504Z,90.50
2019-02-06T12:26:13.863Z,91.20
2019-02-06T12:28:43.174Z,90.50
2019-02-06T12:31:12.551Z,91.40
2019-02-06T12:33:41.918Z,90.80
2019-02-06T12:36:11.752Z,91.20
2019-02-06T12:38:52.719Z,91.00
2019-02-06T12:41:12.210Z,90.90
2019-02-06T12:43:41.541Z,91.50
2019-02-06T12:46:10.926Z,91.20
2019-02-06T12:48:40.188Z,92.40
2019-02-06T12:51:09.507Z,92.90
2019-02-06T12:53:39.402Z,94.90
2019-02-06T12:56:08.675Z,94.60
2019-02-06T12:58:37.899Z,94.90
2019-02-06T13:01:07.398Z,94.30
2019-02-06T13:03:36.725Z,94.30
2019-02-06T13:06:06.070Z,93.00
2019-02-06T13:08:35.353Z,92.40
2019-02-06T13:11:04.944Z,93.60
2019-02-06T13:13:35.917Z,92.80
2019-02-06T13:16:05.477Z,93.30
2019-02-06T13:18:34.722Z,93.70
2019-02-06T13:21:04.061Z,93.80
2019-02-06T13:23:33.425Z,93.80
2019-02-06T13:26:02.737Z,94.60
2019-02-06T13:28:32.043Z,94.40
2019-02-06T13:31:01.395Z,95.50
2019-02-06T13:33:30.722Z,96.60
2019-02-06T13:36:00.039Z,94.80
2019-02-06T13:38:29.316Z,94.40
2019-02-06T13:40:58.575Z,94.40
2019-02-06T13:43:27.824Z,95.10
2019-02-06T13:45:57.121Z,94.50
2019-02-06T13:48:26.453Z,95.20
2019-02-06T13:50:55.886Z,94.40
2019-02-06T13:53:25.544Z,94.70
2019-02-06T13:55:54.870Z,93.50
2019-02-06T13:58:24.201Z,94.30
2019-02-06T14:00:54.016Z,93.40
2019-02-06T14:03:23.349Z,94.70
2019-02-06T14:05:52.680Z,94.80
2019-02-06T14:08:22.166Z,96.20
2019-02-06T14:11:00.424Z,95.70
2019-02-06T14:13:22.931Z,95.40
2019-02-06T14:15:52.223Z,96.40
2019-02-06T14:18:21.527Z,96.70
2019-02-06T14:20:53.314Z,97.20
2019-02-06T14:23:27.077Z,95.70
2019-02-06T14:26:21.448Z,96.70
2019-02-06T14:29:34.656Z,97.40
2019-02-06T14:32:26.109Z,97.60
2019-02-06T14:35:25.578Z,98.00
2019-02-06T14:38:46.882Z,98.20
2019-02-06T14:41:37.205Z,99.90
2019-02-06T14:44:36.320Z,99.80
2019-02-06T14:47:28.976Z,99.90
2019-02-06T14:50:44.984Z,99.90
2019-02-06T14:53:56.614Z,99.90
2019-02-06T14:57:05.863Z,99.90
2019-02-06T14:59:59.495Z,99.90
2019-02-06T15:03:02.052Z,99.90
2019-02-06T15:06:20.751Z,99.90
2019-02-06T15:09:55.493Z,99.90
2019-02-06T15:13:05.305Z,99.90
2019-02-06T15:15:54.555Z,99.90
2019-02-06T15:18:52.795Z,99.90
2019-02-06T15:22:08.849Z,99.90
2019-02-06T15:25:19.504Z,99.90
2019-02-06T15:28:17.830Z,99.90
2019-02-06T15:31:28.454Z,99.90
2019-02-06T15:34:27.820Z,99.90
2019-02-06T15:37:48.233Z,99.90
2019-02-06T15:40:30.975Z,99.90
2019-02-06T15:43:15.696Z,99.90
2019-02-06T15:46:21.609Z,99.90
2019-02-06T15:49:15.365Z,99.90
2019-02-06T15:52:24.176Z,99.90
2019-02-06T15:55:24.539Z,99.90
2019-02-06T15:58:26.967Z,99.90
2019-02-06T16:01:49.295Z,99.90
2019-02-06T16:05:27.059Z,99.90
2019-02-06T16:08:28.165Z,99.90
2019-02-06T16:11:42.403Z,99.90
2019-02-06T16:14:47.969Z,99.90
2019-02-06T16:18:02.685Z,99.90
2019-02-06T16:21:18.530Z,99.90
2019-02-06T16:24:32.568Z,99.90
2019-02-06T16:27:39.069Z,99.90
2019-02-06T16:30:42.493Z,99.90
2019-02-06T16:33:34.846Z,99.90
2019-02-06T16:36:18.686Z,99.90
2019-02-06T16:39:22.660Z,99.90
2019-02-06T16:42:30.199Z,99.90
2019-02-06T16:45:34.114Z,99.90
2019-02-06T16:48:16.643Z,99.90
2019-02-06T16:51:22.872Z,99.90
2019-02-06T16:54:17.952Z,99.90
2019-02-06T16:57:12.335Z,99.90
2019-02-06T17:00:30.780Z,99.90
2019-02-06T17:03:23.853Z,99.90
2019-02-06T17:06:26.719Z,99.90
2019-02-06T17:09:40.257Z,99.90
2019-02-06T17:12:21.259Z,99.90
2019-02-06T17:15:25.336Z,99.90
2019-02-06T17:18:30.615Z,99.90
2019-02-06T17:21:25.739Z,99.90
2019-02-06T17:24:44.875Z,99.90
2019-02-06T17:27:39.478Z,99.90
2019-02-06T17:30:43.153Z,99.90
2019-02-06T17:34:01.503Z,99.90
2019-02-06T17:37:15.116Z,99.90
2019-02-06T17:40:40.156Z,99.90
2019-02-06T17:43:35.179Z,99.90
2019-02-06T17:46:22.824Z,99.90
2019-02-06T17:49:10.718Z,99.90
2019-02-06T17:52:25.204Z,99.90
2019-02-06T17:55:19.337Z,99.90
2019-02-06T17:57:50.481Z,99.90
2019-02-06T18:00:28.360Z,99.90
2019-02-06T18:02:58.555Z,99.90
2019-02-06T18:05:27.805Z,99.90
2019-02-06T18:07:57.150Z,99.90
2019-02-06T18:10:26.492Z,99.90
2019-02-06T18:12:56.129Z,99.90
2019-02-06T18:15:25.495Z,99.90
2019-02-06T18:17:58.857Z,99.90
2019-02-06T18:20:28.194Z,99.90
2019-02-06T18:22:59.031Z,99.90
2019-02-06T18:25:28.431Z,99.90
2019-02-06T18:27:58.056Z,99.90
2019-02-06T18:30:29.407Z,99.90
2019-02-06T18:33:01.021Z,99.90
2019-02-06T18:35:30.924Z,99.90
2019-02-06T18:38:00.702Z,99.90
2019-02-06T18:40:30.779Z,99.90
2019-02-06T18:43:00.163Z,99.90
2019-02-06T18:45:29.675Z,99.90
2019-02-06T18:48:01.413Z,99.90
2019-02-06T18:50:31.226Z,99.90
2019-02-06T18:53:01.268Z,99.90
2019-02-06T18:55:30.627Z,99.90
2019-02-06T18:58:00.403Z,99.90
2019-02-06T19:00:32.427Z,99.90
2019-02-06T19:03:03.264Z,99.90
2019-02-06T19:05:34.940Z,99.90
2019-02-06T19:08:04.490Z,99.90
2019-02-06T19:10:33.841Z,99.90
2019-02-06T19:13:04.179Z,99.90
2019-02-06T19:15:33.889Z,99.90
2019-02-06T19:18:04.648Z,99.90
2019-02-06T19:20:35.666Z,99.90
2019-02-06T19:23:05.465Z,99.90
2019-02-06T19:25:34.929Z,99.90
2019-02-06T19:28:04.587Z,99.90
2019-02-06T19:30:36.651Z,99.90
2019-02-06T19:33:06.405Z,99.90
2019-02-06T19:35:35.686Z,99.90
2019-02-06T19:38:05.591Z,99.90
2019-02-06T19:40:34.985Z,99.90
2019-02-06T19:43:04.534Z,99.90
2019-02-06T19:45:33.971Z,99.90
2019-02-06T19:48:03.360Z,99.90
2019-02-06T19:50:35.380Z,99.90
2019-02-06T19:53:05.260Z,99.90
2019-02-06T19:55:34.647Z,99.90
2019-02-06T19:58:04.579Z,99.90
2019-02-06T20:00:34.329Z,99.90
2019-02-06T20:03:04.394Z,99.90
2019-02-06T20:05:33.681Z,99.90
2019-02-06T20:08:03.667Z,99.90
2019-02-06T20:10:35.715Z,99.90
2019-02-06T20:13:11.376Z,99.90
2019-02-06T20:15:36.911Z,99.90
2019-02-06T20:18:06.915Z,99.90
2019-02-06T20:20:36.778Z,99.90
2019-02-06T20:23:06.050Z,99.90
2019-02-06T20:25:37.119Z,99.90
2019-02-06T20:28:06.478Z,99.90
2019-02-06T20:30:35.995Z,99.90
2019-02-06T20:33:05.947Z,99.90
2019-02-06T20:35:36.059Z,99.90
2019-02-06T20:38:05.375Z,99.90
2019-02-06T20:40:36.293Z,99.90
2019-02-06T20:43:06.104Z,99.90
2019-02-06T20:45:35.462Z,99.90
2019-02-06T20:48:05.169Z,99.90
2019-02-06T20:50:35.137Z,99.90
2019-02-06T20:53:05.506Z,99.90
2019-02-06T20:55:35.060Z,99.90
2019-02-06T20:58:04.705Z,99.90
2019-02-06T21:00:36.085Z,99.90
2019-02-06T21:03:06.169Z,99.90
2019-02-06T21:05:35.684Z,99.90
2019-02-06T21:08:05.919Z,99.90
2019-02-06T21:10:35.742Z,99.90
2019-02-06T21:13:05.730Z,99.90
2019-02-06T21:15:35.066Z,99.90
2019-02-06T21:18:04.646Z,99.90
2019-02-06T21:20:34.000Z,99.90
2019-02-06T21:23:03.777Z,99.90
2019-02-06T21:25:33.161Z,99.90
2019-02-06T21:28:04.253Z,99.90
2019-02-06T21:30:34.988Z,99.90
2019-02-06T21:33:04.730Z,99.90
2019-02-06T21:35:34.361Z,99.90
2019-02-06T21:38:03.747Z,99.90
2019-02-06T21:40:34.500Z,99.90
2019-02-06T21:43:04.578Z,99.90
2019-02-06T21:45:33.956Z,99.90
2019-02-06T21:48:04.483Z,99.90
2019-02-06T21:50:33.809Z,99.90
2019-02-06T21:53:03.096Z,99.90
2019-02-06T21:55:32.353Z,99.90
2019-02-06T21:58:01.678Z,99.90
2019-02-06T22:00:33.875Z,99.90
2019-02-06T22:03:03.132Z,99.90
2019-02-06T22:05:32.973Z,99.90
2019-02-06T22:08:02.341Z,99.90
2019-02-06T22:10:31.678Z,99.90
2019-02-06T22:13:00.934Z,99.90
2019-02-06T22:15:30.369Z,99.90
2019-02-06T22:17:59.676Z,99.90
2019-02-06T22:20:29.314Z,99.90
2019-02-06T22:22:58.676Z,99.90
2019-02-06T22:25:28.703Z,99.90
2019-02-06T22:27:57.964Z,99.90
2019-02-06T22:30:28.868Z,99.90
2019-02-06T22:32:58.649Z,99.90
2019-02-06T22:35:28.291Z,99.90
2019-02-06T22:37:57.854Z,99.90
2019-02-06T22:40:27.191Z,99.90
2019-02-06T22:42:56.521Z,99.90
2019-02-06T22:45:27.115Z,99.90
2019-02-06T22:47:56.402Z,99.90
2019-02-06T22:50:26.819Z,99.90
2019-02-06T22:52:56.196Z,99.90
2019-02-06T22:55:25.535Z,99.90
2019-02-06T22:57:54.872Z,99.90
2019-02-06T23:01:14.102Z,99.90
2019-02-06T23:03:45.347Z,99.90
2019-02-06T23:06:14.755Z,99.90
2019-02-06T23:08:44.346Z,99.90
2019-02-06T23:11:13.681Z,99.90
2019-02-06T23:13:43.029Z,99.90
2019-02-06T23:16:12.377Z,99.90
2019-02-06T23:18:41.621Z,99.90
2019-02-06T23:21:10.959Z,99.90
2019-02-06T23:23:40.629Z,99.90
2019-02-06T23:26:09.949Z,99.90
2019-02-06T23:28:39.198Z,99.90
2019-02-06T23:31:10.328Z,99.90
2019-02-06T23:33:39.698Z,99.90
2019-02-06T23:36:08.935Z,99.90
2019-02-06T23:38:38.284Z,99.90
2019-02-06T23:41:07.525Z,99.90
2019-02-06T23:43:36.759Z,99.90
2019-02-06T23:46:06.332Z,99.90
2019-02-06T23:48:35.709Z,99.90
2019-02-06T23:51:05.374Z,99.90
2019-02-06T23:53:34.757Z,99.90
2019-02-06T23:56:04.296Z,99.90
2019-02-06T23:58:33.565Z,99.90
